createdAt,value
2018-07-25T00:00:24.532Z,51.6
2018-07-25T00:01:14.646Z,51.6
2018-07-25T00:02:04.717Z,51.6
2018-07-25T00:02:54.169Z,51.6
2018-07-25T00:03:45.071Z,51.6
2018-07-25T00:04:34.882Z,51.5
2018-07-25T00:05:24.936Z,51.5
2018-07-25T00:06:15.378Z,51.6
2018-07-25T00:07:04.780Z,51.5
2018-07-25T00:07:55.387Z,51.5
2018-07-25T00:08:44.741Z,51.5
2018-07-25T00:09:35.264Z,51.5
2018-07-25T00:10:25.588Z,51.5
2018-07-25T00:11:15.108Z,51.5
2018-07-25T00:12:05.733Z,51.5
2018-07-25T00:12:55.821Z,51.5
2018-07-25T00:13:45.575Z,51.5
2018-07-25T00:14:35.627Z,51.4
2018-07-25T00:15:25.449Z,51.4
2018-07-25T00:16:15.765Z,51.4
2018-07-25T00:17:05.293Z,51.5
2018-07-25T00:17:55.623Z,51.4
2018-07-25T00:18:45.943Z,51.4
2018-07-25T00:19:36.062Z,51.4
2018-07-25T00:20:25.900Z,51.4
2018-07-25T00:21:15.892Z,51.4
2018-07-25T00:22:06.242Z,51.4
2018-07-25T00:22:56.035Z,51.4
2018-07-25T00:23:46.061Z,51.4
2018-07-25T00:24:35.850Z,51.4
2018-07-25T00:25:26.482Z,51.4
2018-07-25T00:26:16.826Z,51.4
2018-07-25T00:27:06.315Z,51.4
2018-07-25T00:27:56.709Z,51.4
2018-07-25T00:28:46.749Z,51.4
2018-07-25T00:29:36.801Z,51.4
2018-07-25T00:30:26.860Z,51.4
2018-07-25T00:31:16.639Z,51.4
2018-07-25T00:32:07.265Z,51.4
2018-07-25T00:32:57.061Z,51.4
2018-07-25T00:33:47.392Z,51.4
2018-07-25T00:34:37.442Z,51.4
2018-07-25T00:35:27.250Z,51.4
2018-07-25T00:36:17.721Z,51.4
2018-07-25T00:37:07.645Z,51.4
2018-07-25T00:37:57.161Z,51.3
2018-07-25T00:38:47.781Z,51.3
2018-07-25T00:39:37.579Z,51.3
2018-07-25T00:40:27.618Z,51.3
2018-07-25T00:41:17.666Z,51.3
2018-07-25T00:42:08.044Z,51.3
2018-07-25T00:42:57.798Z,51.3
2018-07-25T00:43:47.601Z,51.3
2018-07-25T00:44:38.289Z,51.3
2018-07-25T00:45:28.313Z,51.3
2018-07-25T00:46:18.070Z,51.3
2018-07-25T00:47:08.128Z,51.3
2018-07-25T00:47:58.520Z,51.3
2018-07-25T00:48:48.302Z,51.3
2018-07-25T00:49:38.092Z,51.3
2018-07-25T00:50:27.857Z,51.3
2018-07-25T00:51:18.745Z,51.3
2018-07-25T00:52:07.989Z,51.3
2018-07-25T00:52:58.905Z,51.3
2018-07-25T00:53:48.383Z,51.3
2018-07-25T00:54:38.736Z,51.3
2018-07-25T00:55:29.475Z,51.3
2018-07-25T00:56:18.594Z,51.3
2018-07-25T21:28:38.788Z,43.8
2018-07-25T21:29:28.736Z,43.8
2018-07-25T21:30:19.093Z,43.8
2018-07-25T21:31:09.016Z,43.8
2018-07-25T21:31:58.978Z,43.8
2018-07-25T21:32:48.766Z,43.8
2018-07-25T21:33:38.812Z,43.8
2018-07-25T21:34:29.138Z,43.8
2018-07-25T21:35:19.226Z,43.8
2018-07-25T21:36:09.782Z,43.8
2018-07-25T21:36:59.346Z,43.6
2018-07-25T21:37:49.102Z,43.6
2018-07-25T21:38:39.161Z,43.4
2018-07-25T21:39:29.294Z,42.8
2018-07-25T21:40:19.868Z,42.4
2018-07-25T21:41:09.064Z,42.3
2018-07-25T21:41:59.394Z,42
2018-07-25T21:42:50.011Z,41.9
2018-07-25T21:43:40.095Z,41.9
2018-07-25T21:44:29.889Z,41.8
2018-07-25T21:45:20.216Z,41.7
2018-07-25T21:46:10.288Z,41.6
2018-07-25T21:47:00.400Z,41.6
2018-07-25T21:47:49.843Z,41.6
2018-07-25T21:48:40.244Z,41.5
2018-07-25T21:49:30.268Z,41.5
2018-07-25T21:50:20.581Z,41.6
2018-07-25T21:51:10.598Z,41.4
2018-07-25T21:52:00.717Z,41.5
2018-07-25T21:52:50.793Z,41.4
2018-07-25T21:53:40.855Z,41.4
2018-07-25T21:54:30.701Z,41.4
2018-07-25T21:55:20.949Z,41.4
2018-07-25T21:56:10.478Z,41.4
2018-07-25T21:57:00.932Z,41.4
2018-07-25T21:57:50.905Z,41.4
2018-07-25T21:58:41.246Z,41.4
2018-07-25T21:59:30.489Z,41.3
2018-07-25T22:00:21.365Z,41.3
2018-07-25T22:01:10.855Z,41.3
2018-07-25T22:02:00.916Z,41.3
2018-07-25T22:02:51.267Z,41.3
2018-07-25T22:03:41.157Z,41.3
2018-07-25T22:04:31.411Z,41.3
2018-07-25T22:05:21.725Z,41.3
2018-07-25T22:06:11.767Z,41.3
2018-07-25T22:07:01.836Z,41.3
2018-07-25T22:07:51.445Z,41.3
2018-07-25T22:08:41.262Z,41.2
2018-07-25T22:09:31.284Z,41.2
2018-07-25T22:10:21.639Z,41.2
2018-07-25T22:11:11.684Z,41.2
2018-07-25T22:12:01.756Z,41.2
2018-07-25T22:12:51.889Z,41.1
2018-07-25T22:13:42.390Z,41.1
2018-07-25T22:14:32.289Z,41.1
2018-07-25T22:15:22.241Z,41.1
2018-07-25T22:16:12.312Z,41.1
2018-07-25T22:17:01.802Z,41.1
2018-07-25T22:17:52.147Z,41.1
2018-07-25T22:18:41.929Z,41.1
2018-07-25T22:19:32.869Z,41.1
2018-07-25T22:20:22.912Z,41.1
2018-07-25T22:21:12.394Z,41.1
2018-07-25T22:22:02.755Z,41.1
2018-07-25T22:22:52.816Z,41
2018-07-25T22:23:43.175Z,41
2018-07-25T22:24:32.936Z,41
2018-07-25T22:25:23.007Z,41
2018-07-25T22:26:13.316Z,41
2018-07-25T22:27:02.560Z,41
2018-07-25T22:27:52.665Z,41
2018-07-25T22:28:42.526Z,40.9
2018-07-25T22:29:33.094Z,40.9
2018-07-25T22:30:23.645Z,40.9
2018-07-25T22:31:12.568Z,40.9
2018-07-25T22:32:03.051Z,40.9
2018-07-25T22:32:52.916Z,40.9
2018-07-25T22:33:43.148Z,40.9
2018-07-25T22:34:32.568Z,40.9
2018-07-25T22:35:23.201Z,40.9
2018-07-25T22:36:13.095Z,40.9
2018-07-25T22:37:03.136Z,40.9
2018-07-25T22:37:54.050Z,40.9
2018-07-25T22:38:43.186Z,40.9
2018-07-25T22:39:33.832Z,40.9
2018-07-25T22:40:23.403Z,40.8
2018-07-25T22:41:13.367Z,40.8
2018-07-25T22:42:02.836Z,40.8
2018-07-25T22:42:53.523Z,40.8
2018-07-25T22:43:43.550Z,40.8
2018-07-25T22:44:33.422Z,40.8
2018-07-25T22:45:23.809Z,40.8
2018-07-25T22:46:13.793Z,40.8
2018-07-25T22:47:04.738Z,40.8
2018-07-25T22:47:54.268Z,40.8
2018-07-25T22:48:43.562Z,40.8
2018-07-25T22:49:34.849Z,40.8
2018-07-25T22:50:24.091Z,40.8
2018-07-25T22:51:14.253Z,40.7
2018-07-25T22:52:04.835Z,40.7
2018-07-25T22:52:54.655Z,40.7
2018-07-25T22:53:44.837Z,40.7
2018-07-25T22:54:35.565Z,40.7
2018-07-25T22:55:24.318Z,40.7
2018-07-25T22:56:14.638Z,40.7
2018-07-25T22:57:04.299Z,40.7
2018-07-25T22:57:55.494Z,40.6
2018-07-25T22:58:45.873Z,40.6
2018-07-25T22:59:35.090Z,40.6
2018-07-25T23:00:25.458Z,40.6
2018-07-25T23:01:15.833Z,40.6
2018-07-25T23:02:05.821Z,40.6
2018-07-25T23:02:55.869Z,40.6
2018-07-25T23:03:45.916Z,40.6
2018-07-25T23:04:35.746Z,40.6
2018-07-25T23:05:25.893Z,40.6
2018-07-25T23:06:15.090Z,40.6
2018-07-25T23:07:05.702Z,40.6
2018-07-25T23:07:55.741Z,40.6
2018-07-25T23:08:46.111Z,40.6
2018-07-25T23:09:35.889Z,40.6
2018-07-25T23:10:26.445Z,40.6
2018-07-25T23:11:16.303Z,40.6
2018-07-25T23:12:05.818Z,40.5
2018-07-25T23:12:56.625Z,40.5
2018-07-25T23:13:46.420Z,40.5
2018-07-25T23:14:37.580Z,40.5
2018-07-25T23:15:26.382Z,40.5
2018-07-25T23:16:16.413Z,40.5
2018-07-25T23:17:06.474Z,40.5
2018-07-25T23:17:56.824Z,40.5
2018-07-25T23:18:47.085Z,40.4
2018-07-25T23:19:36.945Z,40.4
2018-07-25T23:20:27.008Z,40.4
2018-07-25T23:21:16.805Z,40.4
2018-07-25T23:22:07.129Z,40.4
2018-07-25T23:22:56.921Z,40.4
2018-07-25T23:23:47.262Z,40.4
2018-07-25T23:24:37.045Z,40.4
2018-07-25T23:25:27.360Z,40.4
2018-07-25T23:26:17.201Z,40.4
2018-07-25T23:27:07.185Z,40.4
2018-07-25T23:27:58.060Z,40.4
2018-07-25T23:28:47.845Z,40.4
2018-07-25T23:29:37.448Z,40.4
2018-07-25T23:30:27.814Z,40.4
2018-07-25T23:31:17.814Z,40.4
2018-07-25T23:32:07.873Z,40.4
2018-07-25T23:32:57.947Z,40.3
2018-07-25T23:33:47.714Z,40.3
2018-07-25T23:34:38.332Z,40.3
2018-07-25T23:35:28.397Z,40.3
2018-07-25T23:36:18.230Z,40.3
2018-07-25T23:37:08.544Z,40.3
2018-07-25T23:37:57.827Z,40.3
2018-07-25T23:38:48.130Z,40.3
2018-07-25T23:39:37.883Z,40.3
2018-07-25T23:40:28.772Z,40.3
2018-07-25T23:41:18.858Z,40.3
2018-07-25T23:42:09.169Z,40.3
2018-07-25T23:42:59.260Z,40.3
2018-07-25T23:43:49.275Z,40.3
2018-07-25T23:44:38.784Z,40.3
2018-07-25T23:45:29.428Z,40.3
2018-07-25T23:46:18.928Z,40.3
2018-07-25T23:47:08.968Z,40.3
2018-07-25T23:47:59.290Z,40.2
2018-07-25T23:48:49.390Z,40.2
2018-07-25T23:49:39.768Z,40.2
2018-07-25T23:50:29.532Z,40.2
2018-07-25T23:51:19.905Z,40.2
2018-07-25T23:52:09.931Z,40.2
2018-07-25T23:52:59.726Z,40.2
2018-07-25T23:53:50.030Z,40.2
2018-07-25T23:54:40.097Z,40.2
2018-07-25T23:55:29.897Z,40.1
2018-07-25T23:56:19.694Z,40.1
2018-07-25T23:57:10.340Z,40.1
2018-07-25T23:58:00.374Z,40.1
2018-07-25T23:58:49.869Z,40.1
2018-07-25T23:59:40.518Z,40.1
